createdAt,value
2023-01-25T00:00:56.169Z,10.18
2023-01-25T00:04:58.259Z,9.07
2023-01-25T00:09:00.546Z,8.85
2023-01-25T00:13:02.550Z,10.70
2023-01-25T00:17:04.822Z,9.88
2023-01-25T00:21:32.093Z,9.43
2023-01-25T00:25:34.106Z,9.63
2023-01-25T00:29:36.172Z,9.25
2023-01-25T00:33:38.147Z,9.43
2023-01-25T00:37:44.352Z,10.55
2023-01-25T00:41:46.460Z,9.83
2023-01-25T00:45:48.454Z,9.90
2023-01-25T00:49:50.503Z,10.27
2023-01-25T00:53:53.392Z,9.27
2023-01-25T00:57:55.490Z,9.43
2023-01-25T01:01:57.550Z,11.88
2023-01-25T01:06:11.050Z,9.77
2023-01-25T01:10:13.090Z,10.52
2023-01-25T01:14:15.213Z,10.57
2023-01-25T01:18:17.279Z,9.90
2023-01-25T01:22:20.435Z,11.27
2023-01-25T01:26:22.890Z,10.25
2023-01-25T01:30:24.925Z,11.10
2023-01-25T01:34:27.199Z,10.38
2023-01-25T01:38:30.022Z,10.40
2023-01-25T01:42:32.016Z,10.63
2023-01-25T01:46:39.524Z,10.63
2023-01-25T01:50:50.945Z,11.32
2023-01-25T01:54:58.731Z,11.43
2023-01-25T01:59:03.164Z,10.32
2023-01-25T02:03:05.300Z,10.35
2023-01-25T02:07:17.323Z,12.63
2023-01-25T02:11:22.853Z,12.25
2023-01-25T02:15:28.961Z,11.13
2023-01-25T02:19:54.947Z,7.17
2023-01-25T02:24:08.144Z,10.40
2023-01-25T02:28:24.187Z,11.18
2023-01-25T02:32:26.437Z,10.98
2023-01-25T02:36:33.715Z,12.73
2023-01-25T02:40:44.509Z,11.13
2023-01-25T02:44:47.607Z,11.98
2023-01-25T02:48:49.627Z,10.50
2023-01-25T02:52:51.618Z,10.43
2023-01-25T02:56:54.388Z,10.90
2023-01-25T03:00:58.996Z,11.73
2023-01-25T03:05:01.851Z,12.00
2023-01-25T03:09:06.316Z,11.40
2023-01-25T03:13:08.596Z,13.20
2023-01-25T03:17:11.194Z,11.27
2023-01-25T03:21:19.048Z,12.23
2023-01-25T03:25:21.358Z,12.45
2023-01-25T03:29:33.436Z,11.35
2023-01-25T03:33:36.025Z,11.32
2023-01-25T03:37:38.193Z,13.30
2023-01-25T03:41:40.742Z,12.55
2023-01-25T03:45:46.185Z,11.82
2023-01-25T03:49:48.624Z,11.65
2023-01-25T03:53:53.980Z,10.95
2023-01-25T03:57:56.491Z,12.13
2023-01-25T04:01:58.858Z,11.48
2023-01-25T04:06:01.477Z,10.70
2023-01-25T04:10:06.341Z,11.05
2023-01-25T04:14:11.062Z,13.07
2023-01-25T04:18:20.446Z,13.88
2023-01-25T04:22:22.595Z,13.10
2023-01-25T04:26:27.699Z,12.77
2023-01-25T04:30:33.802Z,13.33
2023-01-25T04:34:37.124Z,13.30
2023-01-25T04:38:39.739Z,12.38
2023-01-25T04:42:41.747Z,12.80
2023-01-25T04:46:43.883Z,12.50
2023-01-25T04:50:46.709Z,11.63
2023-01-25T04:54:49.344Z,11.77
2023-01-25T04:58:52.300Z,12.05
2023-01-25T05:02:55.061Z,11.82
2023-01-25T05:06:57.526Z,12.90
2023-01-25T05:11:00.803Z,11.88
2023-01-25T05:15:31.842Z,11.60
2023-01-25T05:19:34.209Z,12.68
2023-01-25T05:23:39.495Z,13.55
2023-01-25T05:27:41.660Z,13.10
2023-01-25T05:32:11.700Z,13.55
2023-01-25T05:36:14.203Z,12.43
2023-01-25T05:40:17.868Z,12.68
2023-01-25T05:44:20.455Z,13.85
2023-01-25T05:48:25.958Z,13.90
2023-01-25T05:52:29.485Z,13.27
2023-01-25T05:56:32.354Z,12.57
2023-01-25T06:00:34.539Z,12.90
2023-01-25T06:04:37.573Z,13.07
2023-01-25T06:08:40.171Z,12.65
2023-01-25T06:12:42.473Z,12.60
2023-01-25T06:16:44.640Z,12.38
2023-01-25T06:21:05.851Z,13.20
2023-01-25T06:25:11.935Z,12.52
2023-01-25T06:29:14.289Z,14.10
2023-01-25T06:33:16.395Z,13.30
2023-01-25T06:37:18.508Z,12.15
2023-01-25T06:41:20.910Z,12.48
2023-01-25T06:45:22.927Z,12.88
2023-01-25T06:49:24.919Z,12.30
2023-01-25T06:53:28.419Z,12.00
2023-01-25T06:57:30.428Z,11.77
2023-01-25T07:01:33.547Z,11.48
2023-01-25T07:05:35.572Z,14.55
2023-01-25T07:09:37.657Z,16.08
2023-01-25T07:13:45.682Z,16.90
2023-01-25T07:17:47.730Z,14.63
2023-01-25T07:21:49.816Z,13.13
2023-01-25T07:25:51.870Z,12.48
2023-01-25T07:29:54.173Z,12.65
2023-01-25T07:33:57.847Z,14.05
2023-01-25T07:37:59.904Z,15.73
2023-01-25T07:42:02.103Z,15.00
2023-01-25T07:46:11.295Z,13.73
2023-01-25T07:50:13.574Z,12.52
2023-01-25T07:54:15.584Z,14.48
2023-01-25T07:58:17.615Z,14.07
2023-01-25T08:02:19.640Z,14.57
2023-01-25T08:06:30.575Z,15.00
2023-01-25T08:10:32.880Z,12.85
2023-01-25T08:14:34.983Z,14.52
2023-01-25T08:18:37.188Z,14.07
2023-01-25T08:22:39.263Z,12.73
2023-01-25T08:26:41.515Z,13.52
2023-01-25T08:30:56.471Z,13.55
2023-01-25T08:34:59.158Z,12.48
2023-01-25T08:39:06.549Z,13.15
2023-01-25T08:43:08.569Z,15.45
2023-01-25T08:47:10.598Z,12.40
2023-01-25T08:51:14.308Z,13.35
2023-01-25T08:55:16.302Z,14.43
2023-01-25T08:59:18.327Z,14.02
2023-01-25T09:03:20.465Z,13.15
2023-01-25T09:07:22.506Z,14.80
2023-01-25T09:11:24.554Z,13.88
2023-01-25T09:15:26.707Z,11.98
2023-01-25T09:19:28.843Z,11.90
2023-01-25T09:23:31.736Z,24.73
2023-01-25T09:27:35.488Z,11.48
2023-01-25T09:31:43.688Z,11.30
2023-01-25T09:35:49.571Z,13.20
2023-01-25T09:39:51.617Z,11.70
2023-01-25T09:44:15.030Z,11.48
2023-01-25T09:48:36.221Z,12.88
2023-01-25T09:53:13.525Z,13.90
2023-01-25T09:57:21.605Z,9.75
2023-01-25T10:01:37.976Z,21.00
2023-01-25T10:05:47.440Z,15.10
2023-01-25T10:09:53.396Z,10.90
2023-01-25T10:13:56.938Z,12.95
2023-01-25T10:18:07.109Z,15.18
2023-01-25T10:22:23.396Z,11.75
2023-01-25T10:26:27.978Z,9.98
2023-01-25T10:30:35.746Z,10.07
2023-01-25T10:34:55.826Z,9.85
2023-01-25T10:39:00.994Z,8.88
2023-01-25T10:43:11.488Z,10.88
2023-01-25T10:47:37.203Z,9.80
2023-01-25T10:51:39.256Z,8.82
2023-01-25T10:55:57.648Z,8.05
2023-01-25T11:00:05.298Z,7.22
2023-01-25T11:04:22.592Z,8.55
2023-01-25T11:08:39.343Z,8.20
2023-01-25T11:12:41.377Z,8.30
2023-01-25T11:16:47.504Z,8.02
2023-01-25T11:21:23.179Z,8.95
2023-01-25T11:25:31.770Z,8.30
2023-01-25T11:29:34.137Z,8.00
2023-01-25T11:33:36.145Z,8.07
2023-01-25T11:37:56.518Z,8.48
2023-01-25T11:42:23.553Z,8.38
2023-01-25T11:46:38.450Z,9.18
2023-01-25T11:50:49.917Z,9.30
2023-01-25T11:55:16.787Z,8.98
2023-01-25T12:00:00.279Z,9.03
2023-01-25T12:04:20.855Z,11.80
2023-01-25T12:08:46.157Z,13.30
2023-01-25T12:13:00.270Z,9.52
2023-01-25T12:17:16.632Z,9.48
2023-01-25T12:21:46.352Z,9.77
2023-01-25T12:26:12.336Z,9.75
2023-01-25T12:30:27.128Z,8.40
2023-01-25T12:34:38.596Z,9.05
2023-01-25T12:38:56.782Z,8.32
2023-01-25T12:43:01.480Z,8.82
2023-01-25T12:47:10.425Z,9.20
2023-01-25T12:51:13.850Z,8.27
2023-01-25T12:55:17.575Z,9.10
2023-01-25T12:59:42.273Z,9.45
2023-01-25T13:04:00.919Z,8.68
2023-01-25T13:08:31.076Z,9.52
2023-01-25T13:12:58.714Z,8.48
2023-01-25T13:17:21.340Z,8.95
2023-01-25T13:21:45.347Z,8.63
2023-01-25T13:25:47.405Z,8.15
2023-01-25T13:30:21.437Z,8.40
2023-01-25T13:34:35.707Z,9.52
2023-01-25T13:38:37.833Z,9.00
2023-01-25T13:42:40.019Z,8.98
2023-01-25T13:46:42.061Z,8.32
2023-01-25T13:50:49.328Z,10.40
2023-01-25T13:54:55.319Z,9.98
2023-01-25T13:58:57.874Z,8.25
2023-01-25T14:03:00.894Z,8.25
2023-01-25T14:07:09.828Z,8.13
2023-01-25T14:11:19.179Z,7.15
2023-01-25T14:15:30.454Z,8.23
2023-01-25T14:19:36.074Z,8.10
2023-01-25T14:23:38.679Z,8.52
2023-01-25T14:27:54.742Z,8.10
2023-01-25T14:31:56.767Z,7.97
2023-01-25T14:36:29.433Z,8.73
2023-01-25T14:40:31.846Z,8.65
2023-01-25T14:44:34.114Z,7.85
2023-01-25T14:48:42.452Z,8.20
2023-01-25T14:52:44.559Z,7.93
2023-01-25T14:56:49.624Z,7.63
2023-01-25T15:00:53.152Z,7.78
2023-01-25T15:05:15.107Z,7.50
2023-01-25T15:09:36.452Z,6.63
2023-01-25T15:13:38.559Z,6.10
2023-01-25T15:17:40.627Z,6.90
2023-01-25T15:21:42.819Z,6.85
2023-01-25T15:25:53.018Z,7.20
2023-01-25T15:29:55.065Z,6.50
2023-01-25T15:33:58.486Z,6.18
2023-01-25T15:38:00.488Z,5.60
2023-01-25T15:42:02.604Z,6.55
2023-01-25T15:46:06.059Z,7.10
2023-01-25T15:50:18.074Z,6.32
2023-01-25T15:54:20.203Z,6.97
2023-01-25T15:58:32.966Z,6.65
2023-01-25T16:02:35.031Z,7.10
2023-01-25T16:06:44.321Z,12.07
2023-01-25T16:10:47.080Z,11.73
2023-01-25T16:14:49.166Z,7.43
2023-01-25T16:18:51.254Z,8.80
2023-01-25T16:22:53.254Z,7.00
2023-01-25T16:26:57.841Z,6.75
2023-01-25T16:31:00.120Z,6.88
2023-01-25T16:35:02.283Z,7.90
2023-01-25T16:39:15.603Z,8.93
2023-01-25T16:43:18.631Z,7.88
2023-01-25T16:47:20.884Z,7.28
2023-01-25T16:51:28.301Z,7.03
2023-01-25T16:55:30.707Z,7.65
2023-01-25T16:59:32.826Z,8.05
2023-01-25T17:03:34.834Z,8.07
2023-01-25T17:07:37.275Z,8.48
2023-01-25T17:11:39.888Z,9.27
2023-01-25T17:15:42.191Z,10.02
2023-01-25T17:19:44.288Z,9.90
2023-01-25T17:23:46.947Z,9.65
2023-01-25T17:27:49.099Z,9.82
2023-01-25T17:31:51.180Z,8.82
2023-01-25T17:35:58.235Z,9.07
2023-01-25T17:44:02.875Z,7.95
2023-01-25T17:48:09.037Z,10.63
2023-01-25T17:52:11.400Z,9.17
2023-01-25T17:56:14.318Z,10.18
2023-01-25T18:00:16.770Z,5.75
2023-01-25T18:04:20.331Z,6.82
2023-01-25T18:08:22.322Z,6.90
2023-01-25T18:12:24.354Z,7.28
2023-01-25T18:16:28.781Z,7.13
2023-01-25T18:20:31.613Z,8.02
2023-01-25T18:24:35.261Z,7.15
2023-01-25T18:28:38.431Z,7.55
2023-01-25T18:32:40.599Z,11.93
2023-01-25T18:36:42.694Z,8.48
2023-01-25T18:40:44.798Z,8.95
2023-01-25T18:44:48.572Z,9.30
2023-01-25T18:48:51.188Z,10.05
2023-01-25T18:52:54.201Z,9.98
2023-01-25T18:56:56.227Z,6.50
2023-01-25T19:01:19.802Z,7.38
2023-01-25T19:05:22.083Z,6.40
2023-01-25T19:09:25.395Z,7.00
2023-01-25T19:13:28.021Z,8.65
2023-01-25T19:17:31.960Z,7.32
2023-01-25T19:21:34.209Z,7.18
2023-01-25T19:25:36.234Z,7.68
2023-01-25T19:29:38.285Z,7.75
2023-01-25T19:33:40.668Z,8.18
2023-01-25T19:37:42.716Z,10.98
2023-01-25T19:41:45.322Z,8.18
2023-01-25T19:45:47.479Z,8.30
2023-01-25T19:49:49.591Z,8.15
2023-01-25T19:54:03.889Z,10.00
2023-01-25T19:58:08.658Z,10.32
2023-01-25T20:02:12.249Z,9.18
2023-01-25T20:06:15.740Z,9.07
2023-01-25T20:10:17.850Z,9.95
2023-01-25T20:14:19.916Z,8.43
2023-01-25T20:18:22.628Z,8.93
2023-01-25T20:22:24.645Z,8.77
2023-01-25T20:26:32.720Z,9.68
2023-01-25T20:30:34.740Z,8.32
2023-01-25T20:34:37.004Z,8.07
2023-01-25T20:38:39.240Z,7.05
2023-01-25T20:42:41.264Z,7.32
2023-01-25T20:46:44.006Z,6.85
2023-01-25T20:50:46.048Z,6.20
2023-01-25T20:54:49.114Z,8.60
2023-01-25T20:58:51.723Z,7.10
2023-01-25T21:02:53.837Z,7.70
2023-01-25T21:06:55.860Z,5.25
2023-01-25T21:10:59.184Z,7.30
2023-01-25T21:15:01.205Z,6.68
2023-01-25T21:19:06.589Z,8.27
2023-01-25T21:23:08.629Z,6.32
2023-01-25T21:27:10.654Z,5.50
2023-01-25T21:31:15.956Z,4.88
2023-01-25T21:35:17.971Z,5.65
2023-01-25T21:39:19.989Z,5.68
2023-01-25T21:43:22.005Z,4.78
2023-01-25T21:47:30.540Z,5.43
2023-01-25T21:51:35.962Z,7.20
2023-01-25T21:55:38.134Z,6.88
2023-01-25T21:59:40.843Z,6.00
2023-01-25T22:03:47.112Z,6.65
2023-01-25T22:07:49.125Z,8.20
2023-01-25T22:11:52.987Z,8.73
2023-01-25T22:15:58.782Z,8.02
2023-01-25T22:20:00.825Z,5.38
2023-01-25T22:24:04.840Z,6.53
2023-01-25T22:28:14.209Z,6.93
2023-01-25T22:32:16.225Z,6.45
2023-01-25T22:36:20.644Z,11.60
2023-01-25T22:40:22.743Z,6.35
2023-01-25T22:44:24.811Z,5.68
2023-01-25T22:48:27.341Z,6.75
2023-01-25T22:52:29.411Z,6.88
2023-01-25T22:56:32.848Z,6.07
2023-01-25T23:00:35.174Z,6.25
2023-01-25T23:04:37.468Z,7.07
2023-01-25T23:08:40.419Z,8.63
2023-01-25T23:12:42.434Z,8.43
2023-01-25T23:16:44.511Z,7.05
2023-01-25T23:20:46.500Z,7.28
2023-01-25T23:24:48.532Z,6.13
2023-01-25T23:28:53.135Z,5.90
2023-01-25T23:32:55.187Z,7.03
2023-01-25T23:36:57.207Z,6.63
2023-01-25T23:41:00.927Z,5.25
2023-01-25T23:45:03.038Z,5.57
2023-01-25T23:49:05.185Z,5.53
2023-01-25T23:53:07.228Z,5.35
2023-01-25T23:57:09.265Z,5.22
